sensor_id;sensor_type;location;lat;lon;timestamp;P1;durP1;ratioP1;P2;durP2;ratioP2
37785;SDS011;23625;48.784;9.336;2024-03-23T00:52:45;12.60;;;4.53;;
37785;SDS011;23625;48.784;9.336;2024-03-23T00:55:10;10.68;;;4.10;;
37785;SDS011;23625;48.784;9.336;2024-03-23T00:57:36;8.13;;;3.80;;
37785;SDS011;23625;48.784;9.336;2024-03-23T01:00:01;7.75;;;3.42;;
37785;SDS011;23625;48.784;9.336;2024-03-23T01:02:27;10.10;;;4.60;;
37785;SDS011;23625;48.784;9.336;2024-03-23T01:04:53;6.30;;;3.40;;
37785;SDS011;23625;48.784;9.336;2024-03-23T01:07:18;9.40;;;3.70;;
37785;SDS011;23625;48.784;9.336;2024-03-23T01:09:44;7.53;;;3.72;;
37785;SDS011;23625;48.784;9.336;2024-03-23T01:12:10;8.88;;;3.67;;
37785;SDS011;23625;48.784;9.336;2024-03-23T01:14:35;11.40;;;3.60;;
37785;SDS011;23625;48.784;9.336;2024-03-23T01:17:01;7.38;;;3.53;;
37785;SDS011;23625;48.784;9.336;2024-03-23T01:19:26;9.15;;;3.25;;
37785;SDS011;23625;48.784;9.336;2024-03-23T01:21:52;9.15;;;3.40;;
37785;SDS011;23625;48.784;9.336;2024-03-23T01:24:18;8.85;;;3.53;;
37785;SDS011;23625;48.784;9.336;2024-03-23T01:26:43;9.02;;;3.80;;
37785;SDS011;23625;48.784;9.336;2024-03-23T01:29:09;14.35;;;4.47;;
37785;SDS011;23625;48.784;9.336;2024-03-23T01:31:34;6.75;;;3.63;;
37785;SDS011;23625;48.784;9.336;2024-03-23T01:34:00;9.30;;;3.92;;
37785;SDS011;23625;48.784;9.336;2024-03-23T01:36:26;9.85;;;3.50;;
37785;SDS011;23625;48.784;9.336;2024-03-23T01:38:51;10.38;;;3.63;;
37785;SDS011;23625;48.784;9.336;2024-03-23T01:41:17;7.82;;;3.60;;
37785;SDS011;23625;48.784;9.336;2024-03-23T01:43:43;8.55;;;4.22;;
37785;SDS011;23625;48.784;9.336;2024-03-23T01:46:08;9.80;;;3.30;;
37785;SDS011;23625;48.784;9.336;2024-03-23T01:48:34;6.60;;;3.55;;
37785;SDS011;23625;48.784;9.336;2024-03-23T01:50:59;9.18;;;4.13;;
37785;SDS011;23625;48.784;9.336;2024-03-23T01:53:25;7.70;;;4.00;;
37785;SDS011;23625;48.784;9.336;2024-03-23T01:55:51;9.02;;;3.63;;
37785;SDS011;23625;48.784;9.336;2024-03-23T01:58:16;8.27;;;3.03;;
37785;SDS011;23625;48.784;9.336;2024-03-23T02:00:42;6.63;;;3.28;;
37785;SDS011;23625;48.784;9.336;2024-03-23T02:03:21;10.18;;;3.33;;
37785;SDS011;23625;48.784;9.336;2024-03-23T02:05:49;5.47;;;2.97;;
37785;SDS011;23625;48.784;9.336;2024-03-23T02:08:15;4.95;;;3.05;;
37785;SDS011;23625;48.784;9.336;2024-03-23T02:10:42;10.00;;;3.53;;
37785;SDS011;23625;48.784;9.336;2024-03-23T02:13:08;6.55;;;3.33;;
37785;SDS011;23625;48.784;9.336;2024-03-23T02:15:34;6.93;;;3.75;;
37785;SDS011;23625;48.784;9.336;2024-03-23T02:18:00;9.10;;;3.53;;
37785;SDS011;23625;48.784;9.336;2024-03-23T02:20:25;5.88;;;2.90;;
37785;SDS011;23625;48.784;9.336;2024-03-23T02:22:52;6.43;;;2.97;;
37785;SDS011;23625;48.784;9.336;2024-03-23T02:25:20;4.68;;;2.90;;
37785;SDS011;23625;48.784;9.336;2024-03-23T02:27:46;8.20;;;2.65;;
37785;SDS011;23625;48.784;9.336;2024-03-23T02:30:12;9.75;;;2.80;;
37785;SDS011;23625;48.784;9.336;2024-03-23T02:32:37;8.27;;;3.00;;
37785;SDS011;23625;48.784;9.336;2024-03-23T02:35:03;8.43;;;2.80;;
37785;SDS011;23625;48.784;9.336;2024-03-23T02:37:29;5.55;;;3.00;;
37785;SDS011;23625;48.784;9.336;2024-03-23T02:39:55;8.02;;;2.60;;
37785;SDS011;23625;48.784;9.336;2024-03-23T02:42:20;6.30;;;2.50;;
37785;SDS011;23625;48.784;9.336;2024-03-23T02:44:46;7.45;;;3.10;;
37785;SDS011;23625;48.784;9.336;2024-03-23T02:47:12;6.55;;;2.55;;
37785;SDS011;23625;48.784;9.336;2024-03-23T02:49:37;5.05;;;2.60;;
37785;SDS011;23625;48.784;9.336;2024-03-23T02:52:03;7.78;;;2.25;;
37785;SDS011;23625;48.784;9.336;2024-03-23T02:54:28;5.22;;;2.47;;
37785;SDS011;23625;48.784;9.336;2024-03-23T02:56:54;7.78;;;3.08;;
37785;SDS011;23625;48.784;9.336;2024-03-23T02:59:19;6.88;;;2.75;;
37785;SDS011;23625;48.784;9.336;2024-03-23T03:01:45;6.95;;;2.55;;
37785;SDS011;23625;48.784;9.336;2024-03-23T03:04:10;10.90;;;2.80;;
37785;SDS011;23625;48.784;9.336;2024-03-23T03:06:36;10.80;;;2.78;;
37785;SDS011;23625;48.784;9.336;2024-03-23T03:09:02;5.63;;;1.90;;
37785;SDS011;23625;48.784;9.336;2024-03-23T03:11:27;5.28;;;2.72;;
37785;SDS011;23625;48.784;9.336;2024-03-23T03:13:53;4.45;;;2.40;;
37785;SDS011;23625;48.784;9.336;2024-03-23T03:16:19;6.63;;;2.90;;
37785;SDS011;23625;48.784;9.336;2024-03-23T03:18:44;7.88;;;2.35;;
37785;SDS011;23625;48.784;9.336;2024-03-23T03:21:11;4.82;;;2.63;;
37785;SDS011;23625;48.784;9.336;2024-03-23T03:23:37;6.55;;;2.60;;
37785;SDS011;23625;48.784;9.336;2024-03-23T03:26:03;5.35;;;1.95;;
37785;SDS011;23625;48.784;9.336;2024-03-23T03:28:30;7.45;;;2.30;;
37785;SDS011;23625;48.784;9.336;2024-03-23T03:30:57;10.38;;;2.75;;
37785;SDS011;23625;48.784;9.336;2024-03-23T03:33:23;5.18;;;2.30;;
37785;SDS011;23625;48.784;9.336;2024-03-23T03:35:48;5.45;;;2.47;;
37785;SDS011;23625;48.784;9.336;2024-03-23T03:38:14;6.22;;;2.33;;
37785;SDS011;23625;48.784;9.336;2024-03-23T03:40:40;4.55;;;2.10;;
37785;SDS011;23625;48.784;9.336;2024-03-23T03:43:06;4.03;;;2.30;;
37785;SDS011;23625;48.784;9.336;2024-03-23T03:45:32;5.95;;;2.13;;
37785;SDS011;23625;48.784;9.336;2024-03-23T03:47:58;4.95;;;2.63;;
37785;SDS011;23625;48.784;9.336;2024-03-23T03:50:24;6.10;;;2.85;;
37785;SDS011;23625;48.784;9.336;2024-03-23T03:52:50;4.68;;;2.28;;
37785;SDS011;23625;48.784;9.336;2024-03-23T03:55:16;12.57;;;2.80;;
37785;SDS011;23625;48.784;9.336;2024-03-23T03:57:41;6.28;;;2.70;;
37785;SDS011;23625;48.784;9.336;2024-03-23T04:00:07;5.07;;;2.75;;
37785;SDS011;23625;48.784;9.336;2024-03-23T04:02:39;6.65;;;2.53;;
37785;SDS011;23625;48.784;9.336;2024-03-23T04:05:04;4.88;;;2.38;;
37785;SDS011;23625;48.784;9.336;2024-03-23T04:07:30;5.60;;;2.72;;
37785;SDS011;23625;48.784;9.336;2024-03-23T04:09:56;6.68;;;2.20;;
37785;SDS011;23625;48.784;9.336;2024-03-23T04:12:22;5.72;;;2.90;;
37785;SDS011;23625;48.784;9.336;2024-03-23T04:14:48;13.07;;;2.60;;
37785;SDS011;23625;48.784;9.336;2024-03-23T04:17:14;3.92;;;2.00;;
37785;SDS011;23625;48.784;9.336;2024-03-23T04:19:40;5.78;;;1.95;;
37785;SDS011;23625;48.784;9.336;2024-03-23T04:22:06;5.57;;;2.17;;
37785;SDS011;23625;48.784;9.336;2024-03-23T04:24:31;4.93;;;2.60;;
37785;SDS011;23625;48.784;9.336;2024-03-23T04:26:57;8.88;;;3.13;;
37785;SDS011;23625;48.784;9.336;2024-03-23T04:29:23;6.53;;;2.38;;
37785;SDS011;23625;48.784;9.336;2024-03-23T04:31:48;5.47;;;2.35;;
37785;SDS011;23625;48.784;9.336;2024-03-23T04:34:14;3.05;;;2.08;;
37785;SDS011;23625;48.784;9.336;2024-03-23T04:36:39;4.78;;;2.08;;
37785;SDS011;23625;48.784;9.336;2024-03-23T04:39:05;6.00;;;2.38;;
37785;SDS011;23625;48.784;9.336;2024-03-23T04:41:33;3.47;;;2.10;;
37785;SDS011;23625;48.784;9.336;2024-03-23T04:43:59;5.22;;;2.05;;
37785;SDS011;23625;48.784;9.336;2024-03-23T04:46:25;6.68;;;2.45;;
37785;SDS011;23625;48.784;9.336;2024-03-23T04:48:50;5.68;;;2.90;;
37785;SDS011;23625;48.784;9.336;2024-03-23T04:51:20;4.55;;;2.70;;
37785;SDS011;23625;48.784;9.336;2024-03-23T04:53:46;6.68;;;2.95;;
37785;SDS011;23625;48.784;9.336;2024-03-23T04:56:13;6.10;;;3.45;;
37785;SDS011;23625;48.784;9.336;2024-03-23T04:58:39;8.35;;;3.60;;
37785;SDS011;23625;48.784;9.336;2024-03-23T05:01:05;5.93;;;3.55;;
37785;SDS011;23625;48.784;9.336;2024-03-23T05:03:30;6.03;;;3.75;;
37785;SDS011;23625;48.784;9.336;2024-03-23T05:05:56;11.57;;;3.72;;
37785;SDS011;23625;48.784;9.336;2024-03-23T05:08:21;10.77;;;3.83;;
37785;SDS011;23625;48.784;9.336;2024-03-23T05:10:47;10.05;;;4.18;;
37785;SDS011;23625;48.784;9.336;2024-03-23T05:13:12;9.40;;;5.28;;
37785;SDS011;23625;48.784;9.336;2024-03-23T05:15:38;17.05;;;8.18;;
37785;SDS011;23625;48.784;9.336;2024-03-23T05:18:04;18.90;;;8.98;;
37785;SDS011;23625;48.784;9.336;2024-03-23T05:20:30;17.40;;;9.27;;
37785;SDS011;23625;48.784;9.336;2024-03-23T05:22:56;18.90;;;9.85;;
37785;SDS011;23625;48.784;9.336;2024-03-23T05:25:22;24.48;;;9.77;;
37785;SDS011;23625;48.784;9.336;2024-03-23T05:27:47;21.20;;;11.15;;
37785;SDS011;23625;48.784;9.336;2024-03-23T05:30:13;20.40;;;10.75;;
37785;SDS011;23625;48.784;9.336;2024-03-23T05:32:39;18.20;;;10.20;;
37785;SDS011;23625;48.784;9.336;2024-03-23T05:35:08;22.40;;;11.40;;
37785;SDS011;23625;48.784;9.336;2024-03-23T05:37:34;20.92;;;11.43;;
37785;SDS011;23625;48.784;9.336;2024-03-23T05:40:00;20.25;;;11.82;;
37785;SDS011;23625;48.784;9.336;2024-03-23T05:42:26;26.83;;;12.23;;
37785;SDS011;23625;48.784;9.336;2024-03-23T05:44:51;23.38;;;13.38;;
37785;SDS011;23625;48.784;9.336;2024-03-23T05:47:17;30.30;;;13.18;;
37785;SDS011;23625;48.784;9.336;2024-03-23T05:49:43;25.10;;;12.85;;
37785;SDS011;23625;48.784;9.336;2024-03-23T05:52:11;25.80;;;13.88;;
37785;SDS011;23625;48.784;9.336;2024-03-23T05:54:36;28.33;;;13.00;;
37785;SDS011;23625;48.784;9.336;2024-03-23T05:57:02;23.45;;;12.15;;
37785;SDS011;23625;48.784;9.336;2024-03-23T05:59:28;26.50;;;12.63;;
37785;SDS011;23625;48.784;9.336;2024-03-23T06:01:54;23.70;;;11.63;;
37785;SDS011;23625;48.784;9.336;2024-03-23T06:04:20;23.95;;;10.90;;
37785;SDS011;23625;48.784;9.336;2024-03-23T06:06:46;23.58;;;10.77;;
37785;SDS011;23625;48.784;9.336;2024-03-23T06:09:12;26.20;;;11.13;;
37785;SDS011;23625;48.784;9.336;2024-03-23T06:11:37;19.88;;;10.30;;
37785;SDS011;23625;48.784;9.336;2024-03-23T06:14:03;17.92;;;9.70;;
37785;SDS011;23625;48.784;9.336;2024-03-23T06:16:29;9.13;;;4.65;;
37785;SDS011;23625;48.784;9.336;2024-03-23T06:18:55;8.52;;;4.80;;
37785;SDS011;23625;48.784;9.336;2024-03-23T06:21:21;7.15;;;3.25;;
37785;SDS011;23625;48.784;9.336;2024-03-23T06:23:50;5.05;;;2.97;;
37785;SDS011;23625;48.784;9.336;2024-03-23T06:26:20;6.68;;;3.22;;
37785;SDS011;23625;48.784;9.336;2024-03-23T06:28:46;6.47;;;2.45;;
37785;SDS011;23625;48.784;9.336;2024-03-23T06:31:12;4.35;;;2.03;;
37785;SDS011;23625;48.784;9.336;2024-03-23T06:33:38;3.05;;;2.05;;
37785;SDS011;23625;48.784;9.336;2024-03-23T06:36:05;2.28;;;1.85;;
37785;SDS011;23625;48.784;9.336;2024-03-23T06:38:31;3.97;;;2.20;;
37785;SDS011;23625;48.784;9.336;2024-03-23T06:40:56;3.97;;;2.17;;
37785;SDS011;23625;48.784;9.336;2024-03-23T06:43:22;3.58;;;1.88;;
37785;SDS011;23625;48.784;9.336;2024-03-23T06:45:54;4.20;;;2.00;;
37785;SDS011;23625;48.784;9.336;2024-03-23T06:48:20;3.88;;;1.55;;
37785;SDS011;23625;48.784;9.336;2024-03-23T06:50:47;3.85;;;1.50;;
37785;SDS011;23625;48.784;9.336;2024-03-23T06:53:13;2.58;;;1.35;;
37785;SDS011;23625;48.784;9.336;2024-03-23T06:55:39;2.22;;;1.42;;
37785;SDS011;23625;48.784;9.336;2024-03-23T06:58:04;4.32;;;1.45;;
37785;SDS011;23625;48.784;9.336;2024-03-23T07:00:30;2.15;;;1.00;;
37785;SDS011;23625;48.784;9.336;2024-03-23T07:02:57;4.40;;;0.90;;
37785;SDS011;23625;48.784;9.336;2024-03-23T07:05:23;1.50;;;1.27;;
37785;SDS011;23625;48.784;9.336;2024-03-23T07:07:48;2.75;;;0.82;;
37785;SDS011;23625;48.784;9.336;2024-03-23T07:10:14;2.35;;;1.40;;
37785;SDS011;23625;48.784;9.336;2024-03-23T07:12:40;5.50;;;0.82;;
37785;SDS011;23625;48.784;9.336;2024-03-23T07:15:06;1.17;;;0.80;;
37785;SDS011;23625;48.784;9.336;2024-03-23T07:17:33;0.93;;;0.65;;
37785;SDS011;23625;48.784;9.336;2024-03-23T07:20:00;0.98;;;0.63;;
37785;SDS011;23625;48.784;9.336;2024-03-23T07:22:28;1.65;;;0.40;;
37785;SDS011;23625;48.784;9.336;2024-03-23T07:24:59;0.40;;;0.40;;
37785;SDS011;23625;48.784;9.336;2024-03-23T07:27:26;0.70;;;0.40;;
37785;SDS011;23625;48.784;9.336;2024-03-23T07:29:51;0.85;;;0.40;;
37785;SDS011;23625;48.784;9.336;2024-03-23T07:32:17;0.80;;;0.40;;
37785;SDS011;23625;48.784;9.336;2024-03-23T07:34:43;0.50;;;0.50;;
37785;SDS011;23625;48.784;9.336;2024-03-23T07:37:09;0.35;;;0.20;;
37785;SDS011;23625;48.784;9.336;2024-03-23T07:39:35;1.05;;;0.50;;
37785;SDS011;23625;48.784;9.336;2024-03-23T07:42:01;0.30;;;0.30;;
37785;SDS011;23625;48.784;9.336;2024-03-23T07:44:26;0.90;;;0.50;;
37785;SDS011;23625;48.784;9.336;2024-03-23T07:46:52;1.08;;;0.70;;
37785;SDS011;23625;48.784;9.336;2024-03-23T07:49:18;0.52;;;0.52;;
37785;SDS011;23625;48.784;9.336;2024-03-23T07:51:43;0.50;;;0.50;;
37785;SDS011;23625;48.784;9.336;2024-03-23T07:54:09;3.80;;;1.23;;
37785;SDS011;23625;48.784;9.336;2024-03-23T07:56:35;0.95;;;0.50;;
37785;SDS011;23625;48.784;9.336;2024-03-23T07:59:01;0.38;;;0.38;;
37785;SDS011;23625;48.784;9.336;2024-03-23T08:01:28;1.00;;;0.95;;
37785;SDS011;23625;48.784;9.336;2024-03-23T08:03:53;0.35;;;0.35;;
37785;SDS011;23625;48.784;9.336;2024-03-23T08:06:19;0.20;;;0.20;;
37785;SDS011;23625;48.784;9.336;2024-03-23T08:08:47;0.40;;;0.30;;
37785;SDS011;23625;48.784;9.336;2024-03-23T08:11:26;1.17;;;0.40;;
37785;SDS011;23625;48.784;9.336;2024-03-23T08:13:52;0.57;;;0.50;;
37785;SDS011;23625;48.784;9.336;2024-03-23T08:16:18;0.60;;;0.40;;
37785;SDS011;23625;48.784;9.336;2024-03-23T08:18:44;1.30;;;0.50;;
37785;SDS011;23625;48.784;9.336;2024-03-23T08:21:09;0.82;;;0.60;;
37785;SDS011;23625;48.784;9.336;2024-03-23T08:23:35;1.38;;;0.50;;
37785;SDS011;23625;48.784;9.336;2024-03-23T08:26:09;2.17;;;0.93;;
37785;SDS011;23625;48.784;9.336;2024-03-23T08:28:36;0.90;;;0.70;;
37785;SDS011;23625;48.784;9.336;2024-03-23T08:31:09;2.17;;;1.70;;
37785;SDS011;23625;48.784;9.336;2024-03-23T08:33:36;3.35;;;1.38;;
37785;SDS011;23625;48.784;9.336;2024-03-23T08:36:03;1.25;;;0.85;;
37785;SDS011;23625;48.784;9.336;2024-03-23T08:38:30;0.45;;;0.45;;
37785;SDS011;23625;48.784;9.336;2024-03-23T08:41:03;0.73;;;0.57;;
37785;SDS011;23625;48.784;9.336;2024-03-23T08:43:30;0.32;;;0.32;;
37785;SDS011;23625;48.784;9.336;2024-03-23T08:46:15;0.98;;;0.60;;
37785;SDS011;23625;48.784;9.336;2024-03-23T08:48:42;1.60;;;0.45;;
37785;SDS011;23625;48.784;9.336;2024-03-23T08:51:10;5.38;;;2.45;;
37785;SDS011;23625;48.784;9.336;2024-03-23T08:53:37;1.45;;;1.10;;
37785;SDS011;23625;48.784;9.336;2024-03-23T08:56:04;1.92;;;0.80;;
37785;SDS011;23625;48.784;9.336;2024-03-23T08:58:31;0.95;;;0.63;;
37785;SDS011;23625;48.784;9.336;2024-03-23T09:01:04;4.47;;;1.10;;
37785;SDS011;23625;48.784;9.336;2024-03-23T09:03:40;3.88;;;1.50;;
37785;SDS011;23625;48.784;9.336;2024-03-23T09:06:09;5.57;;;1.75;;
37785;SDS011;23625;48.784;9.336;2024-03-23T09:08:36;19.40;;;1.80;;
37785;SDS011;23625;48.784;9.336;2024-03-23T09:11:06;3.17;;;1.10;;
37785;SDS011;23625;48.784;9.336;2024-03-23T09:13:35;3.50;;;1.92;;
37785;SDS011;23625;48.784;9.336;2024-03-23T09:16:01;8.90;;;2.50;;
37785;SDS011;23625;48.784;9.336;2024-03-23T09:18:28;11.10;;;2.40;;
37785;SDS011;23625;48.784;9.336;2024-03-23T09:20:56;7.03;;;2.10;;
37785;SDS011;23625;48.784;9.336;2024-03-23T09:23:22;7.05;;;2.30;;
37785;SDS011;23625;48.784;9.336;2024-03-23T09:25:47;8.73;;;1.73;;
37785;SDS011;23625;48.784;9.336;2024-03-23T09:28:13;5.45;;;2.50;;
37785;SDS011;23625;48.784;9.336;2024-03-23T09:30:38;9.20;;;2.45;;
37785;SDS011;23625;48.784;9.336;2024-03-23T09:33:07;12.07;;;3.17;;
37785;SDS011;23625;48.784;9.336;2024-03-23T09:35:37;14.15;;;3.45;;
37785;SDS011;23625;48.784;9.336;2024-03-23T09:38:04;17.92;;;5.50;;
37785;SDS011;23625;48.784;9.336;2024-03-23T09:40:29;9.82;;;3.80;;
37785;SDS011;23625;48.784;9.336;2024-03-23T09:42:55;7.30;;;2.78;;
37785;SDS011;23625;48.784;9.336;2024-03-23T09:45:21;10.63;;;3.33;;
37785;SDS011;23625;48.784;9.336;2024-03-23T09:47:51;6.22;;;2.50;;
37785;SDS011;23625;48.784;9.336;2024-03-23T09:50:18;12.10;;;2.40;;
37785;SDS011;23625;48.784;9.336;2024-03-23T09:52:45;6.95;;;2.92;;
37785;SDS011;23625;48.784;9.336;2024-03-23T09:55:11;7.88;;;2.55;;
37785;SDS011;23625;48.784;9.336;2024-03-23T09:57:36;9.50;;;3.10;;
37785;SDS011;23625;48.784;9.336;2024-03-23T10:00:02;12.23;;;3.15;;
37785;SDS011;23625;48.784;9.336;2024-03-23T10:02:29;9.55;;;2.88;;
37785;SDS011;23625;48.784;9.336;2024-03-23T10:04:55;6.43;;;2.72;;
37785;SDS011;23625;48.784;9.336;2024-03-23T10:07:22;10.43;;;2.80;;
37785;SDS011;23625;48.784;9.336;2024-03-23T10:09:48;8.88;;;3.55;;
37785;SDS011;23625;48.784;9.336;2024-03-23T10:12:16;10.55;;;2.83;;
37785;SDS011;23625;48.784;9.336;2024-03-23T10:14:43;11.70;;;3.30;;
37785;SDS011;23625;48.784;9.336;2024-03-23T10:17:22;10.68;;;3.00;;
37785;SDS011;23625;48.784;9.336;2024-03-23T10:19:51;12.32;;;3.50;;
37785;SDS011;23625;48.784;9.336;2024-03-23T10:24:47;10.50;;;3.67;;
37785;SDS011;23625;48.784;9.336;2024-03-23T10:27:17;9.30;;;3.08;;
37785;SDS011;23625;48.784;9.336;2024-03-23T10:29:45;13.85;;;3.00;;
37785;SDS011;23625;48.784;9.336;2024-03-23T10:32:11;9.73;;;2.83;;
37785;SDS011;23625;48.784;9.336;2024-03-23T10:34:38;9.30;;;3.80;;
37785;SDS011;23625;48.784;9.336;2024-03-23T10:37:04;12.18;;;3.22;;
37785;SDS011;23625;48.784;9.336;2024-03-23T10:39:34;11.38;;;3.25;;
37785;SDS011;23625;48.784;9.336;2024-03-23T10:42:02;8.52;;;3.03;;
37785;SDS011;23625;48.784;9.336;2024-03-23T10:44:29;7.28;;;3.22;;
37785;SDS011;23625;48.784;9.336;2024-03-23T10:46:56;16.17;;;3.42;;
37785;SDS011;23625;48.784;9.336;2024-03-23T10:49:29;9.85;;;3.00;;
37785;SDS011;23625;48.784;9.336;2024-03-23T10:52:04;7.25;;;2.80;;
37785;SDS011;23625;48.784;9.336;2024-03-23T10:54:31;8.20;;;2.60;;
37785;SDS011;23625;48.784;9.336;2024-03-23T10:59:45;16.40;;;4.82;;
37785;SDS011;23625;48.784;9.336;2024-03-23T11:02:20;7.32;;;2.70;;
37785;SDS011;23625;48.784;9.336;2024-03-23T11:04:46;10.00;;;2.80;;
37785;SDS011;23625;48.784;9.336;2024-03-23T11:07:29;13.18;;;3.80;;
37785;SDS011;23625;48.784;9.336;2024-03-23T11:09:56;11.75;;;3.80;;
37785;SDS011;23625;48.784;9.336;2024-03-23T11:14:48;12.40;;;4.35;;
37785;SDS011;23625;48.784;9.336;2024-03-23T11:17:29;10.30;;;3.53;;
37785;SDS011;23625;48.784;9.336;2024-03-23T11:19:58;18.10;;;3.90;;
37785;SDS011;23625;48.784;9.336;2024-03-23T11:22:40;17.23;;;3.97;;
37785;SDS011;23625;48.784;9.336;2024-03-23T11:25:21;10.55;;;3.30;;
37785;SDS011;23625;48.784;9.336;2024-03-23T11:27:51;9.90;;;3.38;;
37785;SDS011;23625;48.784;9.336;2024-03-23T11:30:19;7.88;;;3.53;;
37785;SDS011;23625;48.784;9.336;2024-03-23T11:32:47;8.73;;;3.50;;
37785;SDS011;23625;48.784;9.336;2024-03-23T11:35:30;17.00;;;5.07;;
37785;SDS011;23625;48.784;9.336;2024-03-23T11:38:04;3.95;;;2.35;;
37785;SDS011;23625;48.784;9.336;2024-03-23T11:40:30;8.10;;;2.80;;
37785;SDS011;23625;48.784;9.336;2024-03-23T11:43:00;5.78;;;2.15;;
37785;SDS011;23625;48.784;9.336;2024-03-23T11:45:28;6.00;;;2.40;;
37785;SDS011;23625;48.784;9.336;2024-03-23T11:48:04;4.07;;;2.60;;
37785;SDS011;23625;48.784;9.336;2024-03-23T11:50:30;2.90;;;2.00;;
37785;SDS011;23625;48.784;9.336;2024-03-23T11:55:47;5.20;;;2.47;;
37785;SDS011;23625;48.784;9.336;2024-03-23T11:58:13;3.88;;;1.92;;
37785;SDS011;23625;48.784;9.336;2024-03-23T12:00:39;5.78;;;1.70;;
37785;SDS011;23625;48.784;9.336;2024-03-23T12:03:05;8.00;;;2.40;;
37785;SDS011;23625;48.784;9.336;2024-03-23T12:05:32;6.28;;;2.20;;
37785;SDS011;23625;48.784;9.336;2024-03-23T12:10:50;5.60;;;2.10;;
37785;SDS011;23625;48.784;9.336;2024-03-23T12:13:21;7.55;;;2.00;;
37785;SDS011;23625;48.784;9.336;2024-03-23T12:15:47;3.05;;;1.70;;
37785;SDS011;23625;48.784;9.336;2024-03-23T12:18:14;17.73;;;6.53;;
37785;SDS011;23625;48.784;9.336;2024-03-23T12:20:40;11.25;;;2.10;;
37785;SDS011;23625;48.784;9.336;2024-03-23T12:23:06;7.22;;;2.78;;
37785;SDS011;23625;48.784;9.336;2024-03-23T12:25:33;8.10;;;1.90;;
37785;SDS011;23625;48.784;9.336;2024-03-23T12:28:00;8.25;;;1.95;;
37785;SDS011;23625;48.784;9.336;2024-03-23T12:30:26;12.25;;;3.20;;
37785;SDS011;23625;48.784;9.336;2024-03-23T12:32:51;10.80;;;2.67;;
37785;SDS011;23625;48.784;9.336;2024-03-23T12:35:17;8.77;;;1.70;;
37785;SDS011;23625;48.784;9.336;2024-03-23T12:37:43;4.38;;;1.70;;
37785;SDS011;23625;48.784;9.336;2024-03-23T12:40:09;20.00;;;5.25;;
37785;SDS011;23625;48.784;9.336;2024-03-23T12:42:35;9.88;;;2.05;;
37785;SDS011;23625;48.784;9.336;2024-03-23T12:45:00;44.35;;;11.45;;
37785;SDS011;23625;48.784;9.336;2024-03-23T12:47:26;26.45;;;7.50;;
37785;SDS011;23625;48.784;9.336;2024-03-23T12:49:52;16.58;;;4.10;;
37785;SDS011;23625;48.784;9.336;2024-03-23T12:52:17;10.27;;;2.00;;
37785;SDS011;23625;48.784;9.336;2024-03-23T12:54:45;10.60;;;2.35;;
37785;SDS011;23625;48.784;9.336;2024-03-23T12:57:10;11.80;;;1.98;;
37785;SDS011;23625;48.784;9.336;2024-03-23T12:59:36;13.00;;;1.65;;
37785;SDS011;23625;48.784;9.336;2024-03-23T13:02:02;9.73;;;2.30;;
37785;SDS011;23625;48.784;9.336;2024-03-23T13:04:27;8.27;;;2.50;;
37785;SDS011;23625;48.784;9.336;2024-03-23T13:06:53;9.27;;;1.92;;
37785;SDS011;23625;48.784;9.336;2024-03-23T13:09:18;12.50;;;2.30;;
37785;SDS011;23625;48.784;9.336;2024-03-23T13:11:44;8.05;;;1.80;;
37785;SDS011;23625;48.784;9.336;2024-03-23T13:14:09;7.30;;;1.67;;
37785;SDS011;23625;48.784;9.336;2024-03-23T13:16:35;10.60;;;2.00;;
37785;SDS011;23625;48.784;9.336;2024-03-23T13:19:01;9.55;;;2.00;;
37785;SDS011;23625;48.784;9.336;2024-03-23T13:21:26;7.82;;;2.22;;
37785;SDS011;23625;48.784;9.336;2024-03-23T13:23:52;12.15;;;2.42;;
37785;SDS011;23625;48.784;9.336;2024-03-23T13:26:17;12.57;;;2.30;;
37785;SDS011;23625;48.784;9.336;2024-03-23T13:28:43;13.48;;;2.40;;
37785;SDS011;23625;48.784;9.336;2024-03-23T13:31:09;11.23;;;2.03;;
37785;SDS011;23625;48.784;9.336;2024-03-23T13:33:35;12.75;;;1.90;;
37785;SDS011;23625;48.784;9.336;2024-03-23T13:36:00;14.85;;;2.20;;
37785;SDS011;23625;48.784;9.336;2024-03-23T13:38:28;13.98;;;3.17;;
37785;SDS011;23625;48.784;9.336;2024-03-23T13:43:24;9.50;;;2.58;;
37785;SDS011;23625;48.784;9.336;2024-03-23T13:45:54;15.07;;;2.33;;
37785;SDS011;23625;48.784;9.336;2024-03-23T13:48:24;8.38;;;2.70;;
37785;SDS011;23625;48.784;9.336;2024-03-23T13:50:57;8.00;;;2.55;;
37785;SDS011;23625;48.784;9.336;2024-03-23T13:53:24;6.95;;;1.58;;
37785;SDS011;23625;48.784;9.336;2024-03-23T13:55:49;21.55;;;2.38;;
37785;SDS011;23625;48.784;9.336;2024-03-23T13:58:15;6.30;;;1.60;;
37785;SDS011;23625;48.784;9.336;2024-03-23T14:00:41;8.15;;;1.20;;
37785;SDS011;23625;48.784;9.336;2024-03-23T14:03:10;13.07;;;1.50;;
37785;SDS011;23625;48.784;9.336;2024-03-23T14:05:36;9.73;;;1.50;;
37785;SDS011;23625;48.784;9.336;2024-03-23T14:08:08;7.50;;;1.45;;
37785;SDS011;23625;48.784;9.336;2024-03-23T14:10:35;9.18;;;1.80;;
37785;SDS011;23625;48.784;9.336;2024-03-23T14:13:01;8.85;;;1.70;;
37785;SDS011;23625;48.784;9.336;2024-03-23T14:15:28;7.82;;;0.80;;
37785;SDS011;23625;48.784;9.336;2024-03-23T14:17:55;11.80;;;1.40;;
37785;SDS011;23625;48.784;9.336;2024-03-23T14:20:21;2.55;;;0.90;;
37785;SDS011;23625;48.784;9.336;2024-03-23T14:22:47;2.58;;;0.88;;
37785;SDS011;23625;48.784;9.336;2024-03-23T14:25:13;7.47;;;1.30;;
37785;SDS011;23625;48.784;9.336;2024-03-23T14:27:39;1.80;;;1.08;;
37785;SDS011;23625;48.784;9.336;2024-03-23T14:30:05;5.38;;;1.30;;
37785;SDS011;23625;48.784;9.336;2024-03-23T14:32:31;5.70;;;1.67;;
37785;SDS011;23625;48.784;9.336;2024-03-23T14:35:02;6.72;;;2.35;;
37785;SDS011;23625;48.784;9.336;2024-03-23T14:37:28;2.63;;;1.67;;
37785;SDS011;23625;48.784;9.336;2024-03-23T14:39:57;9.00;;;2.40;;
37785;SDS011;23625;48.784;9.336;2024-03-23T14:42:23;1.60;;;0.90;;
37785;SDS011;23625;48.784;9.336;2024-03-23T14:44:49;4.68;;;1.40;;
37785;SDS011;23625;48.784;9.336;2024-03-23T14:47:16;2.03;;;1.00;;
37785;SDS011;23625;48.784;9.336;2024-03-23T14:49:43;3.83;;;1.00;;
37785;SDS011;23625;48.784;9.336;2024-03-23T14:52:15;4.78;;;1.25;;
37785;SDS011;23625;48.784;9.336;2024-03-23T14:54:41;4.18;;;1.10;;
37785;SDS011;23625;48.784;9.336;2024-03-23T14:57:07;5.05;;;0.80;;
37785;SDS011;23625;48.784;9.336;2024-03-23T14:59:35;5.60;;;2.05;;
37785;SDS011;23625;48.784;9.336;2024-03-23T15:02:03;3.13;;;0.80;;
37785;SDS011;23625;48.784;9.336;2024-03-23T15:04:38;4.55;;;0.95;;
37785;SDS011;23625;48.784;9.336;2024-03-23T15:07:06;5.72;;;1.35;;
37785;SDS011;23625;48.784;9.336;2024-03-23T15:09:32;2.55;;;1.02;;
37785;SDS011;23625;48.784;9.336;2024-03-23T15:11:58;6.57;;;1.33;;
37785;SDS011;23625;48.784;9.336;2024-03-23T15:14:24;4.15;;;1.02;;
37785;SDS011;23625;48.784;9.336;2024-03-23T15:16:49;9.80;;;1.58;;
37785;SDS011;23625;48.784;9.336;2024-03-23T15:19:16;4.13;;;1.40;;
37785;SDS011;23625;48.784;9.336;2024-03-23T15:21:42;6.18;;;1.42;;
37785;SDS011;23625;48.784;9.336;2024-03-23T15:24:08;4.50;;;1.15;;
37785;SDS011;23625;48.784;9.336;2024-03-23T15:26:36;5.50;;;2.35;;
37785;SDS011;23625;48.784;9.336;2024-03-23T15:29:04;2.28;;;1.08;;
37785;SDS011;23625;48.784;9.336;2024-03-23T15:31:37;3.25;;;0.80;;
37785;SDS011;23625;48.784;9.336;2024-03-23T15:34:03;13.90;;;4.65;;
37785;SDS011;23625;48.784;9.336;2024-03-23T15:36:29;6.10;;;1.80;;
37785;SDS011;23625;48.784;9.336;2024-03-23T15:38:55;2.88;;;0.80;;
37785;SDS011;23625;48.784;9.336;2024-03-23T15:41:20;4.90;;;1.88;;
37785;SDS011;23625;48.784;9.336;2024-03-23T15:43:50;7.00;;;1.65;;
37785;SDS011;23625;48.784;9.336;2024-03-23T15:46:16;1.15;;;0.60;;
37785;SDS011;23625;48.784;9.336;2024-03-23T15:48:44;4.85;;;1.02;;